Time,TemperatureF,DewpointF,PressureIn,WindDirection,WindDirectionDegrees,WindSpeedMPH,WindSpeedGustMPH,Humidity,HourlyPrecipIn,Conditions,Clouds,dailyrainin,SoftwareType,DateUTC
2013-03-26 00:02:00,49.9,39.3,29.54,ESE,113,0.0,0.0,67,0.00,,,0.00,WUHU216HW,2013-03-26 07:02:00,
2013-03-26 00:07:00,49.9,39.3,29.54,ESE,113,0.0,0.4,67,0.00,,,0.00,WUHU216HW,2013-03-26 07:07:00,
2013-03-26 00:12:00,49.9,39.3,29.53,SSW,203,0.0,0.4,67,0.00,,,0.00,WUHU216HW,2013-03-26 07:12:00,
2013-03-26 00:17:00,49.7,39.2,29.53,SE,135,0.0,0.4,67,0.00,,,0.00,WUHU216HW,2013-03-26 07:17:00,
2013-03-26 00:22:00,49.7,39.2,29.54,West,270,0.0,0.7,67,0.00,,,0.00,WUHU216HW,2013-03-26 07:22:00,
2013-03-26 00:27:00,49.7,39.5,29.54,West,270,0.0,0.7,68,0.00,,,0.00,WUHU216HW,2013-03-26 07:27:00,
2013-03-26 00:32:00,49.7,39.5,29.54,West,270,0.0,0.4,68,0.00,,,0.00,WUHU216HW,2013-03-26 07:32:00,
2013-03-26 00:37:00,49.5,39.3,29.54,West,270,0.0,0.0,68,0.00,,,0.00,WUHU216HW,2013-03-26 07:37:00,
2013-03-26 00:42:00,49.3,39.2,29.54,West,270,0.0,0.0,68,0.00,,,0.00,WUHU216HW,2013-03-26 07:42:00,
2013-03-26 00:47:00,49.3,40.7,29.54,West,270,0.2,0.4,72,0.00,,,0.00,WUHU216HW,2013-03-26 07:47:00,
2013-03-26 00:52:00,49.3,40.0,29.54,West,270,0.0,0.4,70,0.00,,,0.00,WUHU216HW,2013-03-26 07:52:00,
2013-03-26 00:57:00,49.1,40.2,29.54,West,270,0.4,0.9,71,0.00,,,0.00,WUHU216HW,2013-03-26 07:57:00,
2013-03-26 01:02:00,49.0,39.6,29.55,West,270,0.0,0.9,70,0.00,,,0.00,WUHU216HW,2013-03-26 08:02:00,
2013-03-26 01:07:00,48.6,40.0,29.54,West,270,0.2,0.7,72,0.00,,,0.00,WUHU216HW,2013-03-26 08:07:00,
2013-03-26 01:12:00,48.4,39.8,29.54,West,270,0.0,1.1,72,0.00,,,0.00,WUHU216HW,2013-03-26 08:12:00,
2013-03-26 01:17:00,48.4,39.8,29.54,West,270,0.7,1.1,72,0.00,,,0.00,WUHU216HW,2013-03-26 08:17:00,
2013-03-26 01:22:00,48.4,39.8,29.54,ESE,113,0.4,1.1,72,0.00,,,0.00,WUHU216HW,2013-03-26 08:22:00,
2013-03-26 01:27:00,48.2,39.6,29.54,WSW,248,0.0,0.9,72,0.00,,,0.00,WUHU216HW,2013-03-26 08:27:00,
2013-03-26 01:32:00,48.2,39.6,29.54,WSW,248,0.0,0.9,72,0.00,,,0.00,WUHU216HW,2013-03-26 08:32:00,
2013-03-26 01:37:00,48.2,39.9,29.55,West,270,0.0,1.1,73,0.00,,,0.00,WUHU216HW,2013-03-26 08:37:00,
2013-03-26 01:42:00,48.2,39.9,29.55,NNW,338,0.0,1.1,73,0.00,,,0.00,WUHU216HW,2013-03-26 08:42:00,
2013-03-26 01:47:00,48.2,40.2,29.54,West,270,0.0,1.3,74,0.00,,,0.00,WUHU216HW,2013-03-26 08:47:00,
2013-03-26 01:52:00,48.2,40.6,29.54,WNW,293,0.4,1.3,75,0.00,,,0.00,WUHU216HW,2013-03-26 08:52:00,
2013-03-26 01:57:00,48.1,40.8,29.54,WNW,293,0.0,2.0,76,0.00,,,0.00,WUHU216HW,2013-03-26 08:57:00,
2013-03-26 02:02:00,48.2,41.3,29.54,West,270,1.3,2.0,77,0.00,,,0.00,WUHU216HW,2013-03-26 09:02:00,
2013-03-26 02:07:00,48.2,41.3,29.55,West,270,0.7,1.8,77,0.00,,,0.00,WUHU216HW,2013-03-26 09:07:00,
2013-03-26 02:12:00,48.2,41.6,29.55,West,270,0.9,1.6,78,0.00,,,0.00,WUHU216HW,2013-03-26 09:12:00,
2013-03-26 02:17:00,48.2,41.6,29.55,West,270,1.3,2.5,78,0.00,,,0.00,WUHU216HW,2013-03-26 09:17:00,
2013-03-26 02:22:00,48.4,41.5,29.54,West,270,0.2,2.9,77,0.00,,,0.00,WUHU216HW,2013-03-26 09:22:00,
2013-03-26 02:27:00,48.2,41.3,29.54,West,270,0.2,2.9,77,0.00,,,0.00,WUHU216HW,2013-03-26 09:27:00,
2013-03-26 02:32:00,48.2,41.3,29.54,West,270,0.2,2.5,77,0.00,,,0.00,WUHU216HW,2013-03-26 09:32:00,
2013-03-26 02:37:00,48.4,41.8,29.54,West,270,2.0,2.5,78,0.00,,,0.00,WUHU216HW,2013-03-26 09:37:00,
2013-03-26 02:42:00,48.2,41.3,29.55,West,270,0.0,2.5,77,0.00,,,0.00,WUHU216HW,2013-03-26 09:42:00,
2013-03-26 02:47:00,48.4,41.8,29.54,West,270,0.0,2.0,78,0.00,,,0.00,WUHU216HW,2013-03-26 09:47:00,
2013-03-26 02:52:00,48.4,41.8,29.54,West,270,0.2,1.1,78,0.00,,,0.00,WUHU216HW,2013-03-26 09:52:00,
2013-03-26 02:57:00,48.2,41.6,29.54,West,270,0.2,2.0,78,0.00,,,0.00,WUHU216HW,2013-03-26 09:57:00,
2013-03-26 03:02:00,48.2,41.6,29.53,West,270,0.0,2.0,78,0.00,,,0.00,WUHU216HW,2013-03-26 10:02:00,
2013-03-26 03:07:00,48.2,41.6,29.54,West,270,0.0,0.4,78,0.00,,,0.00,WUHU216HW,2013-03-26 10:07:00,
2013-03-26 03:12:00,48.2,41.3,29.54,West,270,0.0,0.0,77,0.00,,,0.00,WUHU216HW,2013-03-26 10:12:00,
2013-03-26 03:17:00,48.2,41.3,29.54,West,270,0.0,0.0,77,0.00,,,0.00,WUHU216HW,2013-03-26 10:17:00,
2013-03-26 03:22:00,48.2,41.3,29.54,West,270,0.0,0.0,77,0.00,,,0.00,WUHU216HW,2013-03-26 10:22:00,
2013-03-26 03:27:00,48.2,41.3,29.53,West,270,0.0,0.0,77,0.00,,,0.00,WUHU216HW,2013-03-26 10:27:00,
2013-03-26 03:32:00,48.2,41.6,29.53,West,270,0.0,0.0,78,0.00,,,0.00,WUHU216HW,2013-03-26 10:32:00,
2013-03-26 03:37:00,48.2,41.6,29.53,West,270,0.0,0.0,78,0.00,,,0.00,WUHU216HW,2013-03-26 10:37:00,
2013-03-26 03:42:00,48.1,41.5,29.54,West,270,0.0,0.0,78,0.00,,,0.00,WUHU216HW,2013-03-26 10:42:00,
2013-03-26 03:47:00,48.1,41.5,29.54,West,270,0.0,0.0,78,0.00,,,0.00,WUHU216HW,2013-03-26 10:47:00,
2013-03-26 03:52:00,48.1,41.8,29.53,West,270,0.0,0.0,79,0.00,,,0.00,WUHU216HW,2013-03-26 10:52:00,
2013-03-26 03:57:00,48.1,41.5,29.53,West,270,0.0,0.7,78,0.00,,,0.00,WUHU216HW,2013-03-26 10:57:00,
2013-03-26 04:02:00,47.9,41.7,29.53,West,270,0.0,0.7,79,0.00,,,0.00,WUHU216HW,2013-03-26 11:02:00,
2013-03-26 04:07:00,47.9,41.3,29.53,West,270,0.0,0.4,78,0.00,,,0.00,WUHU216HW,2013-03-26 11:07:00,
2013-03-26 04:12:00,47.9,41.3,29.54,West,270,0.0,0.0,78,0.00,,,0.00,WUHU216HW,2013-03-26 11:12:00,
2013-03-26 04:17:00,47.9,41.7,29.54,West,270,0.0,0.0,79,0.00,,,0.00,WUHU216HW,2013-03-26 11:17:00,
2013-03-26 04:22:00,47.9,41.9,29.54,West,270,0.0,0.0,80,0.00,,,0.00,WUHU216HW,2013-03-26 11:22:00,
2013-03-26 04:27:00,47.7,41.9,29.54,West,270,0.0,0.0,80,0.00,,,0.00,WUHU216HW,2013-03-26 11:27:00,
2013-03-26 04:32:00,47.5,41.7,29.54,West,270,0.0,0.0,80,0.00,,,0.00,WUHU216HW,2013-03-26 11:32:00,
2013-03-26 04:37:00,47.3,41.5,29.54,West,270,0.0,0.0,80,0.00,,,0.00,WUHU216HW,2013-03-26 11:37:00,
2013-03-26 04:42:00,47.2,41.7,29.54,West,270,0.0,0.0,81,0.00,,,0.00,WUHU216HW,2013-03-26 11:42:00,
2013-03-26 04:47:00,47.2,41.7,29.54,West,270,0.0,0.0,81,0.00,,,0.00,WUHU216HW,2013-03-26 11:47:00,
2013-03-26 04:52:00,47.2,42.9,29.54,West,270,1.1,1.1,85,0.00,,,0.00,WUHU216HW,2013-03-26 11:52:00,
2013-03-26 04:57:00,47.2,42.3,29.54,West,270,0.0,1.1,83,0.00,,,0.00,WUHU216HW,2013-03-26 11:57:00,
2013-03-26 05:02:00,47.2,41.9,29.54,West,270,0.0,0.7,82,0.00,,,0.00,WUHU216HW,2013-03-26 12:02:00,
2013-03-26 05:07:00,47.2,42.3,29.54,West,270,0.0,0.0,83,0.00,,,0.00,WUHU216HW,2013-03-26 12:07:00,
2013-03-26 05:12:00,47.2,41.9,29.54,West,270,0.0,0.0,82,0.00,,,0.00,WUHU216HW,2013-03-26 12:12:00,
2013-03-26 05:17:00,47.2,42.6,29.54,NNW,338,0.0,0.2,84,0.00,,,0.00,WUHU216HW,2013-03-26 12:17:00,
2013-03-26 05:22:00,47.2,42.6,29.55,NNW,338,0.0,0.2,84,0.00,,,0.00,WUHU216HW,2013-03-26 12:22:00,
2013-03-26 05:27:00,47.0,42.4,29.54,West,270,0.0,0.2,84,0.00,,,0.00,WUHU216HW,2013-03-26 12:27:00,
2013-03-26 05:32:00,47.0,42.8,29.54,North,0,0.0,0.4,85,0.00,,,0.00,WUHU216HW,2013-03-26 12:32:00,
2013-03-26 05:37:00,47.0,42.8,29.54,North,0,0.0,0.4,85,0.00,,,0.00,WUHU216HW,2013-03-26 12:37:00,
2013-03-26 05:42:00,47.0,42.8,29.55,ESE,113,0.4,1.1,85,0.00,,,0.00,WUHU216HW,2013-03-26 12:42:00,
2013-03-26 05:47:00,46.8,42.6,29.55,East,90,0.0,1.1,85,0.00,,,0.00,WUHU216HW,2013-03-26 12:47:00,
2013-03-26 05:52:00,46.8,42.8,29.55,East,90,0.0,0.4,86,0.00,,,0.00,WUHU216HW,2013-03-26 12:52:00,
2013-03-26 05:57:00,46.6,43.0,29.55,WNW,293,0.0,0.9,87,0.00,,,0.00,WUHU216HW,2013-03-26 12:57:00,
2013-03-26 06:02:00,46.4,42.9,29.55,West,270,0.0,0.9,87,0.00,,,0.00,WUHU216HW,2013-03-26 13:02:00,
2013-03-26 06:07:00,46.4,42.5,29.54,West,270,0.0,0.4,86,0.00,,,0.00,WUHU216HW,2013-03-26 13:07:00,
2013-03-26 06:12:00,46.4,42.9,29.55,West,270,0.0,0.0,87,0.00,,,0.00,WUHU216HW,2013-03-26 13:12:00,
2013-03-26 06:17:00,46.4,42.9,29.55,ESE,113,0.0,1.1,87,0.00,,,0.00,WUHU216HW,2013-03-26 13:17:00,
2013-03-26 06:22:00,46.6,42.7,29.55,ESE,113,0.0,1.1,86,0.00,,,0.00,WUHU216HW,2013-03-26 13:22:00,
2013-03-26 06:27:00,46.6,42.7,29.55,ESE,113,0.0,0.4,86,0.00,,,0.00,WUHU216HW,2013-03-26 13:27:00,
2013-03-26 06:32:00,46.6,42.7,29.55,SE,135,0.0,0.4,86,0.00,,,0.00,WUHU216HW,2013-03-26 13:32:00,
2013-03-26 06:37:00,46.6,42.7,29.55,SE,135,0.0,0.4,86,0.00,,,0.00,WUHU216HW,2013-03-26 13:37:00,
2013-03-26 06:42:00,46.6,43.0,29.55,SE,135,0.0,0.0,87,0.00,,,0.00,WUHU216HW,2013-03-26 13:42:00,
2013-03-26 06:47:00,46.4,42.9,29.55,SE,135,0.0,0.0,87,0.00,,,0.00,WUHU216HW,2013-03-26 13:47:00,
2013-03-26 06:52:00,46.4,43.1,29.55,West,270,0.2,0.2,88,0.00,,,0.00,WUHU216HW,2013-03-26 13:52:00,
2013-03-26 06:57:00,46.4,43.5,29.55,WNW,293,0.2,0.4,89,0.00,,,0.00,WUHU216HW,2013-03-26 13:57:00,
2013-03-26 07:02:00,46.4,43.1,29.55,SE,135,0.0,1.1,88,0.00,,,0.00,WUHU216HW,2013-03-26 14:02:00,
2013-03-26 07:07:00,46.4,43.7,29.55,West,270,0.2,1.1,90,0.00,,,0.00,WUHU216HW,2013-03-26 14:07:00,
2013-03-26 07:12:00,46.4,43.1,29.55,West,270,0.0,0.7,88,0.00,,,0.00,WUHU216HW,2013-03-26 14:12:00,
2013-03-26 07:17:00,46.4,43.5,29.56,SSE,158,0.0,0.4,89,0.00,,,0.00,WUHU216HW,2013-03-26 14:17:00,
2013-03-26 07:22:00,46.4,43.5,29.55,ESE,113,0.2,0.4,89,0.00,,,0.00,WUHU216HW,2013-03-26 14:22:00,
2013-03-26 07:28:00,46.4,43.1,29.55,East,90,0.0,0.4,88,0.00,,,0.00,WUHU216HW,2013-03-26 14:28:00,
2013-03-26 07:33:00,46.4,43.7,29.55,ESE,113,0.4,0.7,90,0.00,,,0.00,WUHU216HW,2013-03-26 14:33:00,
2013-03-26 07:38:00,46.4,43.5,29.55,ESE,113,0.0,0.7,89,0.00,,,0.00,WUHU216HW,2013-03-26 14:38:00,
2013-03-26 07:43:00,46.4,43.5,29.55,ESE,113,0.0,0.7,89,0.00,,,0.00,WUHU216HW,2013-03-26 14:43:00,
2013-03-26 07:47:00,46.4,43.7,29.55,SE,135,0.0,0.9,90,0.00,,,0.00,WUHU216HW,2013-03-26 14:47:00,
2013-03-26 07:53:00,46.4,43.5,29.55,ESE,113,0.0,0.9,89,0.00,,,0.00,WUHU216HW,2013-03-26 14:53:00,
2013-03-26 07:58:00,46.6,43.7,29.55,ESE,113,0.0,1.1,89,0.00,,,0.00,WUHU216HW,2013-03-26 14:58:00,
2013-03-26 08:03:00,46.6,43.7,29.55,SE,135,0.4,0.9,89,0.00,,,0.00,WUHU216HW,2013-03-26 15:03:00,
2013-03-26 08:08:00,46.8,43.8,29.55,ESE,113,0.0,0.9,89,0.00,,,0.00,WUHU216HW,2013-03-26 15:08:00,
2013-03-26 08:13:00,46.8,43.8,29.55,ESE,113,0.2,0.4,89,0.00,,,0.00,WUHU216HW,2013-03-26 15:13:00,
2013-03-26 08:18:00,46.8,43.8,29.55,ESE,113,0.4,0.9,89,0.00,,,0.00,WUHU216HW,2013-03-26 15:18:00,
2013-03-26 08:23:00,46.8,43.8,29.55,SE,135,0.0,0.9,89,0.00,,,0.00,WUHU216HW,2013-03-26 15:23:00,
2013-03-26 08:28:00,46.8,43.5,29.55,ESE,113,0.0,0.4,88,0.00,,,0.00,WUHU216HW,2013-03-26 15:28:00,
2013-03-26 08:32:00,47.0,43.7,29.55,ESE,113,0.0,0.2,88,0.00,,,0.00,WUHU216HW,2013-03-26 15:32:00,
2013-03-26 08:37:00,47.2,43.8,29.55,SE,135,0.0,0.2,88,0.00,,,0.00,WUHU216HW,2013-03-26 15:37:00,
2013-03-26 08:42:00,47.0,43.7,29.55,SE,135,0.0,0.4,88,0.00,,,0.00,WUHU216HW,2013-03-26 15:42:00,
2013-03-26 08:47:00,47.2,43.8,29.55,SE,135,0.0,0.4,88,0.00,,,0.00,WUHU216HW,2013-03-26 15:47:00,
2013-03-26 08:52:00,47.2,43.8,29.55,SE,135,0.0,0.0,88,0.00,,,0.00,WUHU216HW,2013-03-26 15:52:00,
2013-03-26 08:57:00,47.3,44.0,29.55,SE,135,0.0,0.0,88,0.00,,,0.00,WUHU216HW,2013-03-26 15:57:00,
2013-03-26 09:02:00,47.3,44.0,29.56,SE,135,0.0,0.0,88,0.00,,,0.00,WUHU216HW,2013-03-26 16:02:00,
2013-03-26 09:07:00,47.5,44.2,29.56,SE,135,0.0,0.0,88,0.00,,,0.00,WUHU216HW,2013-03-26 16:07:00,
2013-03-26 09:12:00,47.7,44.4,29.55,ESE,113,0.0,0.4,88,0.00,,,0.00,WUHU216HW,2013-03-26 16:12:00,
2013-03-26 09:17:00,47.7,44.4,29.56,ESE,113,0.0,0.4,88,0.00,,,0.00,WUHU216HW,2013-03-26 16:17:00,
2013-03-26 09:22:00,47.9,44.6,29.55,ESE,113,0.0,0.2,88,0.00,,,0.00,WUHU216HW,2013-03-26 16:22:00,
2013-03-26 09:27:00,47.9,44.6,29.56,ESE,113,0.0,0.2,88,0.00,,,0.00,WUHU216HW,2013-03-26 16:27:00,
2013-03-26 09:32:00,47.9,44.6,29.56,ESE,113,0.0,0.7,88,0.00,,,0.00,WUHU216HW,2013-03-26 16:32:00,
2013-03-26 09:37:00,48.1,44.4,29.56,ESE,113,0.0,0.7,87,0.00,,,0.00,WUHU216HW,2013-03-26 16:37:00,
2013-03-26 09:42:00,48.2,44.6,29.56,ESE,113,0.0,0.0,87,0.00,,,0.00,WUHU216HW,2013-03-26 16:42:00,
2013-03-26 09:48:00,48.6,44.9,29.56,ESE,113,0.0,0.4,87,0.00,,,0.00,WUHU216HW,2013-03-26 16:48:00,
2013-03-26 09:52:00,48.6,44.9,29.55,ESE,113,0.0,0.4,87,0.00,,,0.00,WUHU216HW,2013-03-26 16:52:00,
2013-03-26 09:58:00,48.6,44.9,29.56,ESE,113,0.0,0.2,87,0.00,,,0.00,WUHU216HW,2013-03-26 16:58:00,
2013-03-26 10:03:00,48.8,45.1,29.56,ESE,113,0.0,0.0,87,0.00,,,0.00,WUHU216HW,2013-03-26 17:03:00,
2013-03-26 10:08:00,49.1,45.4,29.55,ESE,113,0.0,0.0,87,0.00,,,0.00,WUHU216HW,2013-03-26 17:08:00,
2013-03-26 10:12:00,49.3,45.3,29.55,ESE,113,0.0,0.7,86,0.00,,,0.00,WUHU216HW,2013-03-26 17:12:00,
2013-03-26 10:17:00,49.5,45.1,29.55,ESE,113,1.1,1.3,85,0.00,,,0.00,WUHU216HW,2013-03-26 17:17:00,
2013-03-26 10:22:00,49.5,45.5,29.56,ESE,113,0.0,1.3,86,0.00,,,0.00,WUHU216HW,2013-03-26 17:22:00,
2013-03-26 10:27:00,49.3,44.9,29.56,ESE,113,0.0,1.1,85,0.00,,,0.00,WUHU216HW,2013-03-26 17:27:00,
2013-03-26 10:33:00,49.5,45.1,29.56,ESE,113,0.0,0.4,85,0.00,,,0.00,WUHU216HW,2013-03-26 17:33:00,
2013-03-26 10:38:00,49.5,45.1,29.56,ESE,113,0.0,0.0,85,0.00,,,0.00,WUHU216HW,2013-03-26 17:38:00,
2013-03-26 10:42:00,49.5,45.1,29.56,ESE,113,0.0,0.7,85,0.00,,,0.00,WUHU216HW,2013-03-26 17:42:00,
2013-03-26 10:48:00,49.7,45.6,29.56,East,90,0.0,0.7,86,0.00,,,0.00,WUHU216HW,2013-03-26 17:48:00,
2013-03-26 10:53:00,49.7,45.6,29.56,East,90,0.4,0.4,86,0.00,,,0.00,WUHU216HW,2013-03-26 17:53:00,
2013-03-26 10:58:00,49.9,45.8,29.56,East,90,0.0,0.7,86,0.00,,,0.00,WUHU216HW,2013-03-26 17:58:00,
2013-03-26 11:03:00,49.9,45.8,29.56,East,90,0.0,0.7,86,0.00,,,0.00,WUHU216HW,2013-03-26 18:03:00,
2013-03-26 11:08:00,50.0,45.9,29.55,East,90,0.0,0.0,86,0.00,,,0.00,WUHU216HW,2013-03-26 18:08:00,
2013-03-26 11:13:00,50.2,46.1,29.56,ESE,113,0.0,0.4,86,0.00,,,0.00,WUHU216HW,2013-03-26 18:13:00,
2013-03-26 11:18:00,50.2,46.1,29.56,ESE,113,0.0,0.4,86,0.00,,,0.00,WUHU216HW,2013-03-26 18:18:00,
2013-03-26 11:23:00,50.0,45.9,29.56,ESE,113,0.0,0.4,86,0.00,,,0.00,WUHU216HW,2013-03-26 18:23:00,
2013-03-26 11:28:00,50.2,46.1,29.56,ESE,113,0.0,0.4,86,0.00,,,0.00,WUHU216HW,2013-03-26 18:28:00,
2013-03-26 11:33:00,50.2,46.1,29.55,ESE,113,0.0,0.0,86,0.00,,,0.00,WUHU216HW,2013-03-26 18:33:00,
2013-03-26 11:38:00,50.4,46.3,29.55,ESE,113,0.0,0.0,86,0.00,,,0.00,WUHU216HW,2013-03-26 18:38:00,
2013-03-26 11:43:00,50.8,46.6,29.56,ESE,113,0.0,0.0,86,0.00,,,0.00,WUHU216HW,2013-03-26 18:43:00,
2013-03-26 11:48:00,51.1,47.0,29.56,ESE,113,0.0,0.4,86,0.00,,,0.00,WUHU216HW,2013-03-26 18:48:00,
2013-03-26 11:53:00,51.3,46.9,29.55,ESE,113,0.0,0.4,85,0.00,,,0.00,WUHU216HW,2013-03-26 18:53:00,
2013-03-26 11:58:00,51.3,46.3,29.55,ESE,113,0.0,0.9,83,0.00,,,0.00,WUHU216HW,2013-03-26 18:58:00,
2013-03-26 12:03:00,51.5,46.8,29.55,ESE,113,0.0,0.9,84,0.00,,,0.00,WUHU216HW,2013-03-26 19:03:00,
2013-03-26 12:08:00,51.7,47.0,29.55,ESE,113,0.0,0.0,84,0.00,,,0.00,WUHU216HW,2013-03-26 19:08:00,
2013-03-26 12:13:00,52.0,47.4,29.56,ESE,113,0.0,0.0,84,0.00,,,0.00,WUHU216HW,2013-03-26 19:13:00,
2013-03-26 12:18:00,52.2,47.5,29.55,SE,135,0.0,0.0,84,0.00,,,0.00,WUHU216HW,2013-03-26 19:18:00,
2013-03-26 12:23:00,52.2,47.2,29.55,SE,135,0.0,0.4,83,0.00,,,0.00,WUHU216HW,2013-03-26 19:23:00,
2013-03-26 12:28:00,52.2,46.9,29.55,WNW,293,0.0,0.4,82,0.00,,,0.00,WUHU216HW,2013-03-26 19:28:00,
2013-03-26 12:33:00,52.6,47.3,29.55,WNW,293,0.0,0.2,82,0.00,,,0.00,WUHU216HW,2013-03-26 19:33:00,
2013-03-26 12:38:00,52.7,47.4,29.55,SE,135,0.4,0.4,82,0.00,,,0.00,WUHU216HW,2013-03-26 19:38:00,
2013-03-26 12:43:00,52.6,46.6,29.55,ESE,113,0.0,1.6,80,0.00,,,0.00,WUHU216HW,2013-03-26 19:43:00,
2013-03-26 12:48:00,52.4,46.7,29.54,ESE,113,0.0,1.6,81,0.00,,,0.00,WUHU216HW,2013-03-26 19:48:00,
2013-03-26 12:53:00,52.6,46.6,29.54,ESE,113,0.0,0.4,80,0.00,,,0.00,WUHU216HW,2013-03-26 19:53:00,
2013-03-26 12:58:00,52.9,47.3,29.54,ESE,113,0.0,0.4,81,0.00,,,0.00,WUHU216HW,2013-03-26 19:58:00,
2013-03-26 13:03:00,53.1,46.4,29.55,ESE,113,0.4,2.0,78,0.00,,,0.00,WUHU216HW,2013-03-26 20:03:00,
2013-03-26 13:08:00,52.9,46.6,29.54,WNW,293,0.0,2.0,79,0.00,,,0.00,WUHU216HW,2013-03-26 20:08:00,
2013-03-26 13:13:00,53.1,46.4,29.54,SE,135,0.0,1.3,78,0.00,,,0.00,WUHU216HW,2013-03-26 20:13:00,
2013-03-26 13:18:00,53.5,46.8,29.54,ESE,113,0.0,1.3,78,0.00,,,0.00,WUHU216HW,2013-03-26 20:18:00,
2013-03-26 13:23:00,53.6,46.3,29.54,ESE,113,0.0,0.7,76,0.00,,,0.00,WUHU216HW,2013-03-26 20:23:00,
2013-03-26 13:28:00,54.0,46.6,29.55,SSE,158,0.2,0.4,76,0.00,,,0.00,WUHU216HW,2013-03-26 20:28:00,
2013-03-26 13:33:00,53.8,46.5,29.55,East,90,0.0,1.1,76,0.00,,,0.00,WUHU216HW,2013-03-26 20:33:00,
2013-03-26 13:38:00,53.8,46.8,29.55,North,0,0.0,1.1,77,0.00,,,0.00,WUHU216HW,2013-03-26 20:38:00,
2013-03-26 13:43:00,53.6,45.9,29.54,ESE,113,0.4,0.9,75,0.00,,,0.00,WUHU216HW,2013-03-26 20:43:00,
2013-03-26 13:48:00,53.6,46.3,29.54,East,90,0.0,0.9,76,0.00,,,0.00,WUHU216HW,2013-03-26 20:48:00,
2013-03-26 13:53:00,54.0,47.0,29.54,ESE,113,0.0,0.4,77,0.00,,,0.00,WUHU216HW,2013-03-26 20:53:00,
2013-03-26 13:58:00,54.4,47.3,29.55,NNE,23,0.0,0.9,77,0.00,,,0.00,WUHU216HW,2013-03-26 20:58:00,
2013-03-26 14:03:00,54.4,47.0,29.54,ESE,113,0.7,0.9,76,0.00,,,0.00,WUHU216HW,2013-03-26 21:03:00,
2013-03-26 14:08:00,54.4,46.6,29.54,WNW,293,0.4,1.1,75,0.00,,,0.00,WUHU216HW,2013-03-26 21:08:00,
2013-03-26 14:13:00,54.2,46.5,29.53,West,270,0.2,1.1,75,0.00,,,0.00,WUHU216HW,2013-03-26 21:13:00,
2013-03-26 14:18:00,54.4,46.6,29.53,ESE,113,0.2,0.9,75,0.00,,,0.00,WUHU216HW,2013-03-26 21:18:00,
2013-03-26 14:23:00,54.4,46.6,29.54,ESE,113,0.0,1.1,75,0.00,,,0.00,WUHU216HW,2013-03-26 21:23:00,
2013-03-26 14:28:00,54.4,46.6,29.53,SE,135,0.0,1.1,75,0.00,,,0.00,WUHU216HW,2013-03-26 21:28:00,
2013-03-26 14:33:00,54.7,47.6,29.53,ESE,113,0.0,0.7,77,0.00,,,0.00,WUHU216HW,2013-03-26 21:33:00,
2013-03-26 14:38:00,55.1,47.6,29.52,ESE,113,0.0,0.7,76,0.00,,,0.00,WUHU216HW,2013-03-26 21:38:00,
2013-03-26 14:43:00,55.4,47.6,29.52,ESE,113,0.0,0.7,75,0.00,,,0.00,WUHU216HW,2013-03-26 21:43:00,
2013-03-26 14:48:00,55.4,47.3,29.53,ESE,113,0.0,0.7,74,0.00,,,0.00,WUHU216HW,2013-03-26 21:48:00,
2013-03-26 14:53:00,55.4,47.3,29.53,ESE,113,0.0,0.7,74,0.00,,,0.00,WUHU216HW,2013-03-26 21:53:00,
2013-03-26 14:58:00,55.4,47.3,29.52,ESE,113,0.0,1.1,74,0.00,,,0.00,WUHU216HW,2013-03-26 21:58:00,
2013-03-26 15:03:00,55.4,47.6,29.52,ESE,113,0.0,1.1,75,0.00,,,0.00,WUHU216HW,2013-03-26 22:03:00,
2013-03-26 15:08:00,55.3,46.7,29.52,ESE,113,0.0,1.8,73,0.00,,,0.00,WUHU216HW,2013-03-26 22:08:00,
2013-03-26 15:13:00,55.1,46.6,29.52,ESE,113,1.1,1.8,73,0.00,,,0.00,WUHU216HW,2013-03-26 22:13:00,
2013-03-26 15:18:00,55.1,46.6,29.52,ESE,113,0.2,1.6,73,0.00,,,0.00,WUHU216HW,2013-03-26 22:18:00,
2013-03-26 15:23:00,55.1,46.9,29.52,WNW,293,0.0,1.6,74,0.00,,,0.00,WUHU216HW,2013-03-26 22:23:00,
2013-03-26 15:28:00,55.3,47.1,29.52,WNW,293,0.0,0.2,74,0.00,,,0.00,WUHU216HW,2013-03-26 22:28:00,
2013-03-26 15:33:00,55.3,47.1,29.52,WNW,293,0.0,0.0,74,0.00,,,0.00,WUHU216HW,2013-03-26 22:33:00,
2013-03-26 15:38:00,55.4,47.3,29.51,ESE,113,0.4,0.4,74,0.00,,,0.00,WUHU216HW,2013-03-26 22:38:00,
2013-03-26 15:43:00,55.8,47.6,29.51,ESE,113,0.0,0.4,74,0.00,,,0.00,WUHU216HW,2013-03-26 22:43:00,
2013-03-26 15:48:00,56.3,47.8,29.51,ESE,113,0.0,0.4,73,0.00,,,0.00,WUHU216HW,2013-03-26 22:48:00,
2013-03-26 15:53:00,56.3,47.8,29.51,ESE,113,0.0,0.4,73,0.00,,,0.00,WUHU216HW,2013-03-26 22:53:00,
2013-03-26 15:59:00,56.3,47.4,29.51,ESE,113,0.2,0.2,72,0.00,,,0.00,WUHU216HW,2013-03-26 22:59:00,
2013-03-26 16:04:00,56.3,47.8,29.51,ESE,113,0.0,0.2,73,0.00,,,0.00,WUHU216HW,2013-03-26 23:04:00,
2013-03-26 16:09:00,56.2,46.9,29.51,ESE,113,0.0,1.6,71,0.00,,,0.00,WUHU216HW,2013-03-26 23:09:00,
2013-03-26 16:14:00,56.2,47.3,29.51,ESE,113,0.0,1.6,72,0.00,,,0.00,WUHU216HW,2013-03-26 23:14:00,
2013-03-26 16:19:00,56.3,47.4,29.51,ESE,113,0.0,1.6,72,0.00,,,0.00,WUHU216HW,2013-03-26 23:19:00,
2013-03-26 16:24:00,56.5,47.3,29.51,ESE,113,0.2,0.9,71,0.00,,,0.00,WUHU216HW,2013-03-26 23:24:00,
2013-03-26 16:29:00,56.5,46.9,29.51,ESE,113,0.0,0.9,70,0.00,,,0.00,WUHU216HW,2013-03-26 23:29:00,
2013-03-26 16:34:00,56.5,46.4,29.51,ESE,113,1.1,1.1,69,0.00,,,0.00,WUHU216HW,2013-03-26 23:34:00,
2013-03-26 16:39:00,56.5,46.9,29.51,ESE,113,0.0,1.1,70,0.00,,,0.00,WUHU216HW,2013-03-26 23:39:00,
2013-03-26 16:44:00,56.7,47.1,29.51,ESE,113,0.0,1.1,70,0.00,,,0.00,WUHU216HW,2013-03-26 23:44:00,
2013-03-26 16:49:00,56.7,46.3,29.51,ESE,113,0.4,1.3,68,0.00,,,0.00,WUHU216HW,2013-03-26 23:49:00,
2013-03-26 16:54:00,56.7,46.6,29.50,ESE,113,0.0,1.3,69,0.00,,,0.00,WUHU216HW,2013-03-26 23:54:00,
2013-03-26 16:59:00,56.7,46.3,29.50,ESE,113,0.0,1.1,68,0.00,,,0.00,WUHU216HW,2013-03-26 23:59:00,
2013-03-26 17:04:00,56.7,46.6,29.50,SE,135,0.4,1.1,69,0.00,,,0.00,WUHU216HW,2013-03-27 00:04:00,
2013-03-26 17:09:00,56.5,46.1,29.50,SE,135,0.0,0.9,68,0.00,,,0.00,WUHU216HW,2013-03-27 00:09:00,
2013-03-26 17:14:00,56.3,46.3,29.50,WSW,248,0.0,0.9,69,0.00,,,0.00,WUHU216HW,2013-03-27 00:14:00,
2013-03-26 17:19:00,56.2,46.2,29.50,ESE,113,0.4,1.3,69,0.00,,,0.00,WUHU216HW,2013-03-27 00:19:00,
2013-03-26 17:24:00,56.0,46.0,29.50,ESE,113,0.2,1.3,69,0.00,,,0.00,WUHU216HW,2013-03-27 00:24:00,
2013-03-26 17:29:00,56.0,46.0,29.50,ESE,113,0.0,1.1,69,0.00,,,0.00,WUHU216HW,2013-03-27 00:29:00,
2013-03-26 17:34:00,56.0,46.4,29.50,ESE,113,0.0,0.4,70,0.00,,,0.00,WUHU216HW,2013-03-27 00:34:00,
2013-03-26 17:39:00,56.0,46.4,29.50,ESE,113,0.0,0.0,70,0.00,,,0.00,WUHU216HW,2013-03-27 00:39:00,
2013-03-26 17:44:00,56.2,46.5,29.50,ESE,113,0.0,0.0,70,0.00,,,0.00,WUHU216HW,2013-03-27 00:44:00,
2013-03-26 17:49:00,56.2,46.5,29.50,ESE,113,0.0,0.4,70,0.00,,,0.00,WUHU216HW,2013-03-27 00:49:00,
2013-03-26 17:54:00,56.2,46.5,29.49,ESE,113,0.0,0.7,70,0.00,,,0.00,WUHU216HW,2013-03-27 00:54:00,
2013-03-26 17:59:00,56.2,46.9,29.50,ESE,113,0.0,0.7,71,0.00,,,0.00,WUHU216HW,2013-03-27 00:59:00,
2013-03-26 18:04:00,56.2,46.9,29.50,SE,135,0.0,0.0,71,0.00,,,0.00,WUHU216HW,2013-03-27 01:04:00,
2013-03-26 18:09:00,56.0,46.7,29.49,ESE,113,0.0,0.2,71,0.00,,,0.00,WUHU216HW,2013-03-27 01:09:00,
2013-03-26 18:14:00,56.0,46.4,29.49,SSE,158,0.0,1.3,70,0.00,,,0.00,WUHU216HW,2013-03-27 01:14:00,
2013-03-26 18:19:00,55.6,46.5,29.49,SSE,158,0.0,1.3,71,0.00,,,0.00,WUHU216HW,2013-03-27 01:19:00,
2013-03-26 18:24:00,55.6,46.5,29.50,SE,135,0.2,0.4,71,0.00,,,0.00,WUHU216HW,2013-03-27 01:24:00,
2013-03-26 18:29:00,55.4,46.6,29.50,SE,135,0.0,0.4,72,0.00,,,0.00,WUHU216HW,2013-03-27 01:29:00,
2013-03-26 18:34:00,55.4,46.6,29.50,ESE,113,0.0,1.1,72,0.00,,,0.00,WUHU216HW,2013-03-27 01:34:00,
2013-03-26 18:39:00,55.3,46.5,29.50,ESE,113,0.0,1.1,72,0.00,,,0.00,WUHU216HW,2013-03-27 01:39:00,
2013-03-26 18:44:00,55.3,46.7,29.49,ESE,113,0.0,0.0,73,0.00,,,0.00,WUHU216HW,2013-03-27 01:44:00,
2013-03-26 18:49:00,55.1,46.6,29.49,ESE,113,0.0,0.0,73,0.00,,,0.00,WUHU216HW,2013-03-27 01:49:00,
2013-03-26 18:54:00,55.1,46.6,29.50,ESE,113,0.0,0.2,73,0.00,,,0.00,WUHU216HW,2013-03-27 01:54:00,
2013-03-26 18:59:00,54.9,46.5,29.50,SE,135,0.0,0.4,73,0.00,,,0.00,WUHU216HW,2013-03-27 01:59:00,
2013-03-26 19:04:00,54.9,46.5,29.49,SE,135,0.0,0.4,73,0.00,,,0.00,WUHU216HW,2013-03-27 02:04:00,
2013-03-26 19:09:00,54.7,46.3,29.49,ESE,113,0.0,0.4,73,0.00,,,0.00,WUHU216HW,2013-03-27 02:09:00,
2013-03-26 19:14:00,54.7,46.3,29.49,ESE,113,0.0,0.4,73,0.00,,,0.00,WUHU216HW,2013-03-27 02:14:00,
2013-03-26 19:19:00,54.5,46.1,29.49,ESE,113,0.0,0.0,73,0.00,,,0.00,WUHU216HW,2013-03-27 02:19:00,
2013-03-26 19:24:00,54.4,45.9,29.50,ESE,113,0.0,0.0,73,0.00,,,0.00,WUHU216HW,2013-03-27 02:24:00,
2013-03-26 19:29:00,54.4,45.9,29.49,ESE,113,0.0,0.0,73,0.00,,,0.00,WUHU216HW,2013-03-27 02:29:00,
2013-03-26 19:34:00,54.4,45.9,29.49,ESE,113,0.0,0.0,73,0.00,,,0.00,WUHU216HW,2013-03-27 02:34:00,
2013-03-26 19:39:00,54.2,46.1,29.48,ESE,113,0.0,0.0,74,0.00,,,0.00,WUHU216HW,2013-03-27 02:39:00,
2013-03-26 19:44:00,54.0,45.9,29.48,ESE,113,0.0,0.0,74,0.00,,,0.00,WUHU216HW,2013-03-27 02:44:00,
2013-03-26 19:49:00,54.0,45.9,29.49,ESE,113,0.0,0.0,74,0.00,,,0.00,WUHU216HW,2013-03-27 02:49:00,
2013-03-26 19:54:00,54.0,45.9,29.50,ESE,113,0.0,0.0,74,0.00,,,0.00,WUHU216HW,2013-03-27 02:54:00,
2013-03-26 19:59:00,53.8,45.7,29.49,ESE,113,0.0,0.0,74,0.00,,,0.00,WUHU216HW,2013-03-27 02:59:00,
2013-03-26 20:04:00,53.8,46.1,29.49,ESE,113,0.0,0.0,75,0.00,,,0.00,WUHU216HW,2013-03-27 03:04:00,
2013-03-26 20:09:00,53.6,45.9,29.49,ESE,113,0.0,0.0,75,0.00,,,0.00,WUHU216HW,2013-03-27 03:09:00,
2013-03-26 20:14:00,53.6,45.9,29.49,ESE,113,0.0,0.0,75,0.00,,,0.00,WUHU216HW,2013-03-27 03:14:00,
2013-03-26 20:19:00,53.6,45.9,29.50,ESE,113,0.0,0.0,75,0.00,,,0.00,WUHU216HW,2013-03-27 03:19:00,
2013-03-26 20:24:00,53.6,45.9,29.50,ESE,113,0.0,0.0,75,0.00,,,0.00,WUHU216HW,2013-03-27 03:24:00,
2013-03-26 20:29:00,53.5,46.1,29.50,ESE,113,0.4,1.1,76,0.00,,,0.00,WUHU216HW,2013-03-27 03:29:00,
2013-03-26 20:34:00,53.3,46.3,29.50,South,180,0.2,1.1,77,0.00,,,0.00,WUHU216HW,2013-03-27 03:34:00,
2013-03-26 20:39:00,52.9,46.3,29.50,West,270,0.0,0.4,78,0.00,,,0.00,WUHU216HW,2013-03-27 03:39:00,
2013-03-26 20:44:00,52.7,46.4,29.50,West,270,0.0,0.2,79,0.00,,,0.00,WUHU216HW,2013-03-27 03:44:00,
2013-03-26 20:49:00,52.6,46.3,29.50,West,270,0.0,0.0,79,0.00,,,0.00,WUHU216HW,2013-03-27 03:49:00,
2013-03-26 20:54:00,52.4,46.4,29.50,West,270,0.0,0.0,80,0.00,,,0.00,WUHU216HW,2013-03-27 03:54:00,
2013-03-26 20:59:00,52.2,46.5,29.50,West,270,0.0,0.0,81,0.00,,,0.00,WUHU216HW,2013-03-27 03:59:00,
2013-03-26 21:00:00,52.4,46.4,29.50,West,270,0.0,0.0,80,0.00,,,0.00,WUHU216HW,2013-03-27 04:00:00,
2013-03-26 21:05:00,52.2,46.5,29.48,West,270,0.0,0.0,81,0.00,,,0.00,WUHU216HW,2013-03-27 04:05:00,
2013-03-26 21:10:00,52.2,46.5,29.50,West,270,0.0,0.0,81,0.00,,,0.00,WUHU216HW,2013-03-27 04:10:00,
2013-03-26 21:15:00,52.2,46.5,29.50,West,270,0.0,0.0,81,0.00,,,0.00,WUHU216HW,2013-03-27 04:15:00,
2013-03-26 21:20:00,52.0,46.7,29.50,West,270,0.0,0.0,82,0.00,,,0.00,WUHU216HW,2013-03-27 04:20:00,
2013-03-26 21:25:00,52.0,46.7,29.49,West,270,0.0,0.0,82,0.00,,,0.00,WUHU216HW,2013-03-27 04:25:00,
2013-03-26 21:30:00,52.0,46.7,29.49,West,270,0.0,0.0,82,0.00,,,0.00,WUHU216HW,2013-03-27 04:30:00,
2013-03-26 21:35:00,51.8,46.5,29.45,West,270,0.0,0.0,82,0.00,,,0.00,WUHU216HW,2013-03-27 04:35:00,
2013-03-26 21:40:00,51.8,46.8,29.50,West,270,0.0,0.0,83,0.00,,,0.00,WUHU216HW,2013-03-27 04:40:00,
2013-03-26 21:45:00,51.8,46.8,29.50,West,270,0.0,0.0,83,0.00,,,0.00,WUHU216HW,2013-03-27 04:45:00,
2013-03-26 21:50:00,51.8,46.8,29.50,West,270,0.0,0.0,83,0.00,,,0.00,WUHU216HW,2013-03-27 04:50:00,
2013-03-26 21:55:00,51.7,47.0,29.50,West,270,0.0,0.0,84,0.00,,,0.00,WUHU216HW,2013-03-27 04:55:00,
2013-03-26 22:00:00,51.7,46.6,29.47,West,270,0.0,0.0,83,0.00,,,0.00,WUHU216HW,2013-03-27 05:00:00,
2013-03-26 22:05:00,51.5,46.8,29.50,West,270,0.0,0.0,84,0.00,,,0.00,WUHU216HW,2013-03-27 05:05:00,
2013-03-26 22:10:00,51.5,46.8,29.50,West,270,0.0,0.0,84,0.00,,,0.00,WUHU216HW,2013-03-27 05:10:00,
2013-03-26 22:15:00,51.3,46.6,29.50,West,270,0.0,0.0,84,0.00,,,0.00,WUHU216HW,2013-03-27 05:15:00,
2013-03-26 22:20:00,51.3,46.6,29.49,West,270,0.0,0.0,84,0.00,,,0.00,WUHU216HW,2013-03-27 05:20:00,
2013-03-26 22:25:00,51.1,46.5,29.49,West,270,0.0,0.0,84,0.00,,,0.00,WUHU216HW,2013-03-27 05:25:00,
2013-03-26 22:30:00,50.9,46.3,29.49,West,270,0.0,0.0,84,0.00,,,0.00,WUHU216HW,2013-03-27 05:30:00,
2013-03-26 22:35:00,50.8,46.1,29.49,West,270,0.0,0.0,84,0.00,,,0.00,WUHU216HW,2013-03-27 05:35:00,
2013-03-26 22:40:00,50.6,45.9,29.50,West,270,0.0,0.0,84,0.00,,,0.00,WUHU216HW,2013-03-27 05:40:00,
2013-03-26 22:45:00,50.4,45.7,29.49,West,270,0.0,0.0,84,0.00,,,0.00,WUHU216HW,2013-03-27 05:45:00,
2013-03-26 22:50:00,50.0,45.6,29.44,West,270,0.0,0.0,85,0.00,,,0.00,WUHU216HW,2013-03-27 05:50:00,
2013-03-26 22:55:00,50.0,45.6,29.44,West,270,0.0,0.0,85,0.00,,,0.00,WUHU216HW,2013-03-27 05:55:00,
2013-03-26 23:00:00,49.9,45.5,29.42,West,270,0.0,0.0,85,0.00,,,0.00,WUHU216HW,2013-03-27 06:00:00,
2013-03-26 23:05:00,49.9,45.5,29.42,West,270,0.0,0.0,85,0.00,,,0.00,WUHU216HW,2013-03-27 06:05:00,
2013-03-26 23:10:00,49.7,45.3,29.34,West,270,0.0,0.0,85,0.00,,,0.00,WUHU216HW,2013-03-27 06:10:00,
2013-03-26 23:15:00,49.3,44.9,29.37,West,270,0.0,0.0,85,0.00,,,0.00,WUHU216HW,2013-03-27 06:15:00,
2013-03-26 23:20:00,49.1,44.8,29.33,West,270,0.0,0.0,85,0.00,,,0.00,WUHU216HW,2013-03-27 06:20:00,
2013-03-26 23:25:00,49.0,44.7,29.27,West,270,0.0,0.0,85,0.00,,,0.00,WUHU216HW,2013-03-27 06:25:00,
2013-03-26 23:30:00,48.6,44.3,29.41,West,270,0.0,0.0,85,0.00,,,0.00,WUHU216HW,2013-03-27 06:30:00,
2013-03-26 23:35:00,48.2,43.9,29.36,West,270,0.0,0.0,85,0.00,,,0.00,WUHU216HW,2013-03-27 06:35:00,
2013-03-26 23:40:00,48.1,43.7,29.45,West,270,0.0,0.0,85,0.00,,,0.00,WUHU216HW,2013-03-27 06:40:00,
2013-03-26 23:45:00,47.9,43.6,29.44,West,270,0.0,0.0,85,0.00,,,0.00,WUHU216HW,2013-03-27 06:45:00,
2013-03-26 23:50:00,47.9,43.6,29.45,West,270,0.0,0.0,85,0.00,,,0.00,WUHU216HW,2013-03-27 06:50:00,
2013-03-26 23:55:00,47.5,43.6,29.46,West,270,0.0,0.0,86,0.00,,,0.00,WUHU216HW,2013-03-27 06:55:00,